Main page
METAR-TAF:

METAR-TAF

Airports :

Hrodna Airport

Grodno, Belarus

latitude: 53-36-06N, longitude: 024-03-18E, elevation: 135 m

Current weather observation

The report was made 7 hours and 2 minutes ago, at 15:00 UTC
Wind 8 kt from the West/Northwest with gusts up to 14 kt
Temperature 0°C
Humidity 100%
Pressure 1006 hPa
Visibility: 4300 m
Overcast at a height of 1100 ft
light snow

METAR: UMMG 271500Z 29004G07MPS 4300 -SN OVC011 00/M00 Q1006 NOSIG

Time: 01:02 (22:02 UTC)

Forecast

The report was made 8 hours and 4 minutes ago, at 13:58 UTC
Forecast valid from 27 at 14 UTC to 27 at 24 UTC
Wind 12 kt from the West/Northwest
Visibility: 4000 m
Overcast at a height of 700 ft
light snow
Temporary
from 27 at 14 UTC to 27 at 24 UTC
Wind 16 kt from the West/Northwest with gusts up to 25 kt
Visibility: 1400 m
Broken clouds at a height of 400 ft, Cumulonimbus.
snow showers, Blowing snow

TAF: UMMG 271358Z 2714/2724 29006MPS 4000 -SN OVC007 TX01/2714Z TNM02/2724Z TEMPO 2714/2724 29008G13MPS 1400 SHSN BLSN BKN004CB

Weather observations and forecasts of more than 4000 airports (METAR and TAF reports).

The available stations are represented by yellow and red dots on the map.

Hover mouse over dot to see the name of the station.

Then click to see weather observations and forecasts.

To change the map : click on the green buttons with a black cross to zoom in, on the green button with a dash to zoom out, or on the green arrows for adjacent maps.


METAR-TAF: